createdAt,value
2017-05-31T00:02:26.977Z,22.84
2017-05-31T00:04:55.934Z,27.10
2017-05-31T00:07:24.887Z,37.34
2017-05-31T00:09:53.879Z,26.72
2017-05-31T00:12:22.819Z,28.22
2017-05-31T00:14:52.084Z,30.80
2017-05-31T00:17:21.038Z,29.38
2017-05-31T00:19:49.986Z,27.04
2017-05-31T00:22:18.946Z,34.60
2017-05-31T00:24:47.929Z,33.32
2017-05-31T00:27:16.903Z,29.32
2017-05-31T00:29:45.857Z,31.50
2017-05-31T00:32:15.118Z,27.58
2017-05-31T00:34:44.108Z,33.08
2017-05-31T00:37:13.089Z,30.52
2017-05-31T00:39:42.070Z,31.48
2017-05-31T00:42:11.035Z,28.20
2017-05-31T00:44:40.290Z,26.44
2017-05-31T00:47:09.238Z,32.62
2017-05-31T00:49:38.190Z,28.06
2017-05-31T00:52:07.182Z,27.10
2017-05-31T00:54:36.149Z,31.22
2017-05-31T00:57:05.459Z,33.56
2017-05-31T00:59:34.404Z,30.52
2017-05-31T01:02:03.366Z,33.34
2017-05-31T01:04:32.335Z,31.46
2017-05-31T01:07:01.293Z,36.18
2017-05-31T01:09:30.615Z,33.46
2017-05-31T01:12:00.308Z,34.88
2017-05-31T01:14:29.295Z,36.84
2017-05-31T01:16:58.288Z,34.58
2017-05-31T01:19:27.546Z,38.36
2017-05-31T01:21:56.870Z,32.96
2017-05-31T01:24:25.831Z,29.44
2017-05-31T01:26:54.785Z,33.30
2017-05-31T01:29:23.769Z,32.08
2017-05-31T01:31:52.725Z,34.60
2017-05-31T01:34:21.976Z,39.98
2017-05-31T01:36:50.960Z,28.90
2017-05-31T01:39:19.925Z,37.42
2017-05-31T01:41:48.890Z,34.40
2017-05-31T01:44:17.836Z,31.26
2017-05-31T01:46:47.075Z,30.82
2017-05-31T01:49:16.007Z,30.38
2017-05-31T01:51:44.974Z,31.48
2017-05-31T01:54:13.954Z,33.42
2017-05-31T01:56:42.959Z,33.74
2017-05-31T01:59:12.324Z,43.88
2017-05-31T02:01:41.282Z,30.36
2017-05-31T02:04:10.227Z,37.28
2017-05-31T02:06:39.193Z,32.88
2017-05-31T02:09:08.166Z,38.04
2017-05-31T02:11:37.598Z,33.30
2017-05-31T02:14:06.549Z,35.56
2017-05-31T02:16:35.505Z,38.56
2017-05-31T02:19:04.498Z,30.12
2017-05-31T02:21:33.495Z,32.74
2017-05-31T02:24:02.839Z,30.98
2017-05-31T02:26:31.808Z,26.42
2017-05-31T02:29:00.772Z,27.46
2017-05-31T02:31:29.823Z,32.22
2017-05-31T02:33:58.759Z,27.74
2017-05-31T02:36:28.007Z,32.18
2017-05-31T02:38:56.963Z,21.72
2017-05-31T02:41:25.926Z,28.62
2017-05-31T02:43:54.893Z,29.08
2017-05-31T02:46:23.842Z,30.50
2017-05-31T02:48:53.170Z,28.14
2017-05-31T02:51:22.139Z,32.64
2017-05-31T02:53:51.112Z,27.72
2017-05-31T02:56:20.077Z,29.64
2017-05-31T02:58:49.046Z,30.90
2017-05-31T03:01:18.357Z,23.46
2017-05-31T03:03:47.301Z,24.62
2017-05-31T03:06:16.283Z,35.24
2017-05-31T03:08:45.258Z,33.30
2017-05-31T03:11:14.231Z,35.50
2017-05-31T03:13:43.602Z,37.74
2017-05-31T03:16:12.547Z,39.08
2017-05-31T03:18:41.497Z,36.30
2017-05-31T03:21:10.474Z,36.54
2017-05-31T03:23:39.512Z,42.64
2017-05-31T03:26:08.795Z,33.32
2017-05-31T03:28:37.834Z,37.24
2017-05-31T03:31:06.781Z,35.80
2017-05-31T03:33:35.773Z,42.80
2017-05-31T03:36:04.739Z,36.46
2017-05-31T03:38:34.062Z,44.02
2017-05-31T03:41:03.026Z,31.66
2017-05-31T03:43:31.949Z,29.82
2017-05-31T03:46:00.969Z,31.44
2017-05-31T03:48:29.938Z,34.72
2017-05-31T03:50:59.235Z,33.00
2017-05-31T03:53:28.181Z,32.62
2017-05-31T03:55:57.129Z,38.14
2017-05-31T03:58:26.094Z,36.44
2017-05-31T04:00:55.127Z,27.90
2017-05-31T04:03:24.482Z,36.68
2017-05-31T04:05:53.427Z,27.56
2017-05-31T04:08:22.411Z,29.50
2017-05-31T04:10:51.425Z,31.82
2017-05-31T04:13:20.398Z,31.54
2017-05-31T04:15:49.638Z,48.04
2017-05-31T04:18:18.631Z,31.34
2017-05-31T04:20:47.701Z,25.06
2017-05-31T04:23:16.686Z,30.56
2017-05-31T04:25:45.650Z,36.84
2017-05-31T04:28:15.034Z,36.64
2017-05-31T04:30:43.990Z,33.28
2017-05-31T04:33:13.124Z,30.62
2017-05-31T04:35:42.123Z,39.36
2017-05-31T04:38:11.079Z,30.06
2017-05-31T04:40:40.388Z,29.54
2017-05-31T04:43:09.402Z,29.94
2017-05-31T04:45:38.358Z,29.20
2017-05-31T04:48:07.340Z,31.10
2017-05-31T04:50:36.294Z,33.32
2017-05-31T04:53:05.656Z,28.92
2017-05-31T04:55:34.657Z,29.14
2017-05-31T04:58:03.611Z,24.46
2017-05-31T05:00:32.597Z,21.16
2017-05-31T05:03:01.556Z,20.22
2017-05-31T05:05:30.913Z,21.56
2017-05-31T05:07:59.935Z,18.08
2017-05-31T05:10:28.888Z,21.56
2017-05-31T05:12:57.850Z,13.62
2017-05-31T05:15:26.865Z,18.32
2017-05-31T05:17:56.213Z,16.68
2017-05-31T05:20:25.166Z,15.24
2017-05-31T05:22:54.119Z,9.12
2017-05-31T05:25:23.102Z,8.58
2017-05-31T05:27:52.055Z,9.92
2017-05-31T05:30:21.290Z,6.44
2017-05-31T05:32:50.313Z,12.46
2017-05-31T05:35:19.291Z,10.56
2017-05-31T05:37:48.277Z,7.52
2017-05-31T05:40:17.214Z,5.94
2017-05-31T05:42:46.533Z,7.50
2017-05-31T05:45:15.582Z,12.52
2017-05-31T05:47:44.529Z,8.84
2017-05-31T05:50:13.522Z,9.52
2017-05-31T05:52:42.478Z,6.44
2017-05-31T05:55:11.800Z,3.94
2017-05-31T05:57:40.739Z,5.92
2017-05-31T06:00:09.702Z,4.82
2017-05-31T06:02:38.696Z,4.88
2017-05-31T06:05:07.758Z,10.00
2017-05-31T06:07:37.190Z,4.56
2017-05-31T06:10:06.134Z,5.84
2017-05-31T06:12:35.087Z,6.96
2017-05-31T06:15:04.034Z,5.44
2017-05-31T06:17:33.096Z,2.32
2017-05-31T06:20:02.520Z,5.54
2017-05-31T06:22:31.489Z,2.82
2017-05-31T06:25:00.449Z,3.52
2017-05-31T06:27:29.417Z,6.08
2017-05-31T06:29:58.782Z,8.08
2017-05-31T06:32:28.278Z,3.60
2017-05-31T06:34:57.216Z,3.82
2017-05-31T06:37:26.171Z,3.26
2017-05-31T06:39:55.126Z,3.92
2017-05-31T06:42:24.049Z,5.24
2017-05-31T06:44:53.022Z,6.42
2017-05-31T06:47:22.029Z,3.44
2017-05-31T06:49:51.557Z,3.76
2017-05-31T06:52:20.490Z,3.44
2017-05-31T06:54:49.571Z,5.16
2017-05-31T06:57:18.544Z,4.94
2017-05-31T06:59:47.522Z,5.72
2017-05-31T07:02:16.092Z,5.84
2017-05-31T07:04:45.051Z,3.40
2017-05-31T07:07:14.002Z,4.14
2017-05-31T07:09:42.973Z,7.06
2017-05-31T07:12:11.903Z,3.22
2017-05-31T07:14:41.210Z,4.42
2017-05-31T07:17:10.188Z,4.56
2017-05-31T07:19:39.126Z,4.46
2017-05-31T07:22:08.119Z,1.86
2017-05-31T07:24:37.187Z,12.66
2017-05-31T07:27:06.480Z,8.92
2017-05-31T07:29:35.496Z,3.92
2017-05-31T07:32:04.451Z,2.12
2017-05-31T07:34:33.489Z,3.32
2017-05-31T07:37:02.421Z,1.60
2017-05-31T07:39:31.919Z,2.52
2017-05-31T07:42:00.886Z,1.38
2017-05-31T07:44:29.882Z,4.88
2017-05-31T07:46:58.862Z,7.48
2017-05-31T07:49:27.833Z,8.22
2017-05-31T07:51:57.276Z,4.58
2017-05-31T07:54:26.244Z,5.24
2017-05-31T07:56:55.211Z,2.60
2017-05-31T07:59:24.192Z,2.22
2017-05-31T08:01:53.146Z,3.72
2017-05-31T08:04:22.560Z,13.12
2017-05-31T08:06:51.516Z,1.78
2017-05-31T08:09:20.484Z,2.06
2017-05-31T08:11:49.475Z,1.42
2017-05-31T08:14:18.479Z,2.76
2017-05-31T08:16:47.821Z,4.18
2017-05-31T08:19:16.794Z,7.08
2017-05-31T08:21:45.743Z,11.14
2017-05-31T08:24:14.763Z,6.88
2017-05-31T08:26:43.703Z,4.92
2017-05-31T08:29:13.014Z,1.78
2017-05-31T08:31:41.978Z,6.22
2017-05-31T08:34:10.967Z,3.46
2017-05-31T08:36:39.984Z,13.68
2017-05-31T08:39:08.960Z,1.32
2017-05-31T08:41:38.353Z,3.38
2017-05-31T08:44:07.324Z,6.76
2017-05-31T08:46:36.284Z,1.82
2017-05-31T08:49:05.274Z,5.16
2017-05-31T08:51:34.416Z,2.46
2017-05-31T08:54:03.827Z,2.70
2017-05-31T08:56:32.809Z,2.56
2017-05-31T08:59:01.778Z,6.48
2017-05-31T09:01:30.752Z,5.32
2017-05-31T09:03:59.787Z,8.66
2017-05-31T09:06:29.077Z,4.18
2017-05-31T09:08:58.054Z,1.98
2017-05-31T09:11:27.050Z,2.00
2017-05-31T09:13:56.014Z,4.24
2017-05-31T09:16:24.962Z,7.14
2017-05-31T09:18:54.360Z,4.22
2017-05-31T09:21:23.441Z,4.16
2017-05-31T09:23:52.394Z,6.44
2017-05-31T09:26:21.387Z,5.08
2017-05-31T09:28:50.375Z,3.92
2017-05-31T09:31:19.727Z,4.00
2017-05-31T09:33:48.710Z,8.02
2017-05-31T09:36:17.663Z,8.94
2017-05-31T09:38:46.630Z,6.76
2017-05-31T09:41:15.608Z,4.04
2017-05-31T09:43:44.998Z,5.46
2017-05-31T09:46:14.027Z,3.54
2017-05-31T09:48:42.972Z,8.80
2017-05-31T09:51:11.967Z,2.50
2017-05-31T09:53:40.931Z,3.68
2017-05-31T09:56:09.971Z,5.96
2017-05-31T09:58:38.963Z,3.68
2017-05-31T10:01:08.340Z,6.60
2017-05-31T10:03:36.515Z,5.46
2017-05-31T10:06:05.742Z,6.64
2017-05-31T10:08:34.732Z,12.30
2017-05-31T10:11:03.683Z,7.36
2017-05-31T10:13:32.965Z,2.94
2017-05-31T10:16:01.922Z,9.94
2017-05-31T10:18:30.872Z,4.70
2017-05-31T10:20:59.874Z,10.06
2017-05-31T10:23:28.795Z,8.44
2017-05-31T10:25:58.277Z,6.04
2017-05-31T10:28:27.259Z,14.00
2017-05-31T10:30:56.270Z,11.32
2017-05-31T10:33:25.237Z,5.30
2017-05-31T10:35:54.232Z,6.88
2017-05-31T10:38:23.642Z,9.12
2017-05-31T10:40:52.623Z,4.64
2017-05-31T10:43:21.602Z,8.80
2017-05-31T10:45:50.694Z,12.58
2017-05-31T10:48:19.739Z,6.40
2017-05-31T10:50:49.176Z,4.94
2017-05-31T10:53:18.142Z,6.10
2017-05-31T10:55:47.097Z,12.84
2017-05-31T10:58:16.085Z,9.22
2017-05-31T11:00:45.076Z,8.28
2017-05-31T11:03:14.396Z,5.80
2017-05-31T11:05:43.382Z,5.60
2017-05-31T11:08:12.350Z,6.26
2017-05-31T11:10:41.354Z,10.70
2017-05-31T11:13:10.315Z,4.08
2017-05-31T11:15:39.708Z,4.90
2017-05-31T11:18:08.763Z,9.18
2017-05-31T11:20:37.767Z,6.84
2017-05-31T11:23:06.757Z,6.94
2017-05-31T11:25:35.721Z,4.56
2017-05-31T11:28:05.031Z,10.24
2017-05-31T11:30:34.007Z,9.44
2017-05-31T11:33:02.195Z,7.62
2017-05-31T11:35:31.262Z,10.08
2017-05-31T11:38:00.355Z,11.72
2017-05-31T11:40:29.675Z,15.42
2017-05-31T11:42:58.629Z,6.50
2017-05-31T11:45:27.625Z,5.64
2017-05-31T11:47:56.633Z,13.04
2017-05-31T11:50:25.610Z,13.18
2017-05-31T11:52:54.928Z,11.80
2017-05-31T11:55:23.932Z,11.52
2017-05-31T11:57:52.892Z,8.58
2017-05-31T12:00:21.857Z,7.20
2017-05-31T12:02:50.846Z,4.88
2017-05-31T12:05:20.318Z,4.32
2017-05-31T12:07:49.291Z,9.20
2017-05-31T12:10:18.335Z,8.72
2017-05-31T12:12:47.304Z,7.98
2017-05-31T12:15:16.298Z,8.24
2017-05-31T12:17:44.866Z,11.36
2017-05-31T12:20:13.890Z,8.44
2017-05-31T12:22:42.854Z,4.28
2017-05-31T12:25:11.846Z,15.38
2017-05-31T12:27:40.822Z,14.94
2017-05-31T12:30:10.161Z,8.40
2017-05-31T12:32:39.143Z,13.04
2017-05-31T12:35:07.369Z,15.92
2017-05-31T12:37:36.355Z,10.42
2017-05-31T12:40:05.389Z,7.62
2017-05-31T12:42:34.799Z,6.16
2017-05-31T12:45:03.770Z,7.28
2017-05-31T12:47:32.736Z,6.62
2017-05-31T12:50:01.731Z,7.68
2017-05-31T12:52:30.711Z,11.86
2017-05-31T12:55:00.174Z,8.30
2017-05-31T12:57:29.274Z,10.10
2017-05-31T12:59:58.227Z,6.16
2017-05-31T13:02:26.670Z,10.62
2017-05-31T13:04:55.641Z,13.68
2017-05-31T13:07:24.696Z,12.96
2017-05-31T13:09:53.729Z,9.50
2017-05-31T13:12:22.725Z,4.82
2017-05-31T13:14:51.689Z,9.90
2017-05-31T13:17:20.656Z,8.10
2017-05-31T13:19:50.199Z,11.74
2017-05-31T13:22:19.169Z,16.20
2017-05-31T13:24:48.174Z,9.92
2017-05-31T13:27:17.198Z,9.02
2017-05-31T13:29:46.162Z,9.86
2017-05-31T13:32:15.580Z,9.40
2017-05-31T13:34:44.564Z,12.12
2017-05-31T13:37:13.542Z,11.02
2017-05-31T13:39:42.518Z,7.94
2017-05-31T13:42:11.509Z,7.76
2017-05-31T13:44:40.914Z,10.28
2017-05-31T13:47:09.906Z,7.12
2017-05-31T13:49:38.855Z,7.22
2017-05-31T13:52:07.835Z,9.68
2017-05-31T13:54:36.833Z,9.60
2017-05-31T13:57:06.185Z,10.44
2017-05-31T13:59:35.150Z,13.16
2017-05-31T14:02:04.103Z,7.90
2017-05-31T14:04:33.082Z,8.06
2017-05-31T14:07:02.055Z,8.36
2017-05-31T14:09:31.453Z,10.96
2017-05-31T14:12:00.560Z,8.78
2017-05-31T14:14:29.530Z,9.54
2017-05-31T14:16:58.547Z,4.96
2017-05-31T14:19:27.499Z,13.14
2017-05-31T14:21:56.830Z,10.46
2017-05-31T14:24:25.779Z,9.68
2017-05-31T14:26:54.745Z,3.44
2017-05-31T14:29:23.730Z,11.68
2017-05-31T14:31:52.693Z,12.20
2017-05-31T14:34:22.205Z,7.42
2017-05-31T14:36:51.203Z,9.50
2017-05-31T14:39:20.202Z,10.26
2017-05-31T14:41:49.168Z,7.20
2017-05-31T14:44:18.190Z,11.96
2017-05-31T14:46:47.544Z,8.96
2017-05-31T14:49:16.525Z,12.72
2017-05-31T14:51:45.612Z,16.40
2017-05-31T14:54:14.630Z,12.00
2017-05-31T14:56:43.570Z,7.88
2017-05-31T14:59:12.933Z,8.20
2017-05-31T15:01:41.990Z,10.38
2017-05-31T15:04:11.043Z,12.38
2017-05-31T15:06:40.035Z,6.58
2017-05-31T15:09:09.016Z,8.82
2017-05-31T15:11:38.378Z,7.58
2017-05-31T15:14:07.466Z,16.66
2017-05-31T15:16:36.460Z,8.68
2017-05-31T15:19:05.451Z,21.38
2017-05-31T15:21:34.504Z,12.72
2017-05-31T15:24:03.979Z,10.30
2017-05-31T15:26:32.941Z,8.76
2017-05-31T15:29:01.986Z,9.50
2017-05-31T15:31:30.955Z,10.84
2017-05-31T15:33:59.919Z,7.04
2017-05-31T15:36:29.238Z,9.90
2017-05-31T15:38:58.297Z,17.14
2017-05-31T15:41:28.311Z,10.08
2017-05-31T15:43:57.294Z,10.26
2017-05-31T15:46:26.278Z,9.06
2017-05-31T15:48:55.659Z,10.46
2017-05-31T15:51:24.660Z,8.40
2017-05-31T15:53:53.659Z,12.98
2017-05-31T15:56:22.703Z,7.68
2017-05-31T15:58:51.659Z,13.32
2017-05-31T16:01:20.966Z,11.36
2017-05-31T16:03:49.922Z,5.12
2017-05-31T16:06:18.912Z,10.84
2017-05-31T16:08:47.959Z,10.06
2017-05-31T16:11:16.966Z,9.58
2017-05-31T16:13:46.392Z,13.02
2017-05-31T16:16:15.341Z,10.30
2017-05-31T16:18:44.329Z,9.68
2017-05-31T16:21:13.330Z,10.22
2017-05-31T16:23:43.192Z,7.22
2017-05-31T16:26:12.567Z,8.72
2017-05-31T16:28:41.535Z,10.30
2017-05-31T16:31:10.513Z,10.36
2017-05-31T16:33:39.528Z,12.76
2017-05-31T16:36:08.491Z,10.32
2017-05-31T16:38:37.831Z,21.98
2017-05-31T16:41:06.818Z,8.76
2017-05-31T16:43:35.801Z,12.34
2017-05-31T16:46:04.780Z,8.04
2017-05-31T16:48:33.780Z,9.68
2017-05-31T16:51:03.192Z,8.58
2017-05-31T16:53:32.271Z,12.36
2017-05-31T16:56:01.225Z,11.14
2017-05-31T16:58:30.246Z,14.54
2017-05-31T17:00:59.229Z,13.22
2017-05-31T17:03:28.566Z,18.36
2017-05-31T17:05:57.616Z,12.28
2017-05-31T17:08:26.575Z,7.78
2017-05-31T17:10:55.584Z,9.06
2017-05-31T17:13:24.531Z,4.46
2017-05-31T17:15:53.918Z,7.42
2017-05-31T17:18:22.863Z,19.34
2017-05-31T17:20:51.830Z,7.76
2017-05-31T17:23:20.822Z,6.28
2017-05-31T17:25:49.880Z,9.30
2017-05-31T17:28:18.877Z,16.34
2017-05-31T17:30:47.856Z,10.00
2017-05-31T17:33:17.270Z,11.92
2017-05-31T17:35:46.244Z,3.86
2017-05-31T17:38:15.244Z,12.04
2017-05-31T17:40:44.359Z,11.10
2017-05-31T17:43:13.351Z,21.30
2017-05-31T17:45:42.683Z,6.04
2017-05-31T17:48:11.674Z,12.44
2017-05-31T17:50:40.683Z,7.64
2017-05-31T17:53:09.689Z,7.50
2017-05-31T17:55:38.646Z,9.34
2017-05-31T17:58:08.058Z,8.24
2017-05-31T18:00:37.060Z,14.16
2017-05-31T18:03:06.036Z,7.08
2017-05-31T18:05:35.344Z,17.46
2017-05-31T18:08:04.328Z,5.70
2017-05-31T18:10:33.745Z,9.12
2017-05-31T18:13:02.782Z,4.40
2017-05-31T18:15:31.829Z,13.00
2017-05-31T18:18:00.795Z,11.68
2017-05-31T18:20:29.799Z,6.86
2017-05-31T18:22:59.267Z,10.40
2017-05-31T18:25:28.248Z,12.74
2017-05-31T18:27:57.249Z,8.48
2017-05-31T18:30:26.315Z,8.00
2017-05-31T18:32:55.299Z,11.46
2017-05-31T18:35:24.656Z,9.46
2017-05-31T18:37:53.655Z,12.52
2017-05-31T18:40:22.667Z,8.58
2017-05-31T18:42:51.688Z,8.16
2017-05-31T18:45:20.712Z,8.66
2017-05-31T18:47:50.037Z,9.34
2017-05-31T18:50:18.996Z,16.44
2017-05-31T18:52:48.048Z,13.14
2017-05-31T18:55:17.039Z,17.28
2017-05-31T18:57:46.066Z,26.06
2017-05-31T19:00:15.500Z,8.70
2017-05-31T19:02:44.494Z,15.60
2017-05-31T19:05:13.483Z,9.90
2017-05-31T19:07:42.485Z,13.70
2017-05-31T19:10:11.455Z,16.62
2017-05-31T19:12:40.896Z,16.48
2017-05-31T19:15:09.124Z,12.92
2017-05-31T19:17:38.204Z,13.34
2017-05-31T19:20:07.207Z,10.20
2017-05-31T19:22:36.520Z,13.94
2017-05-31T19:25:05.991Z,9.64
2017-05-31T19:27:35.009Z,12.52
2017-05-31T19:30:04.006Z,17.52
2017-05-31T19:32:33.061Z,14.62
2017-05-31T19:35:02.071Z,15.50
2017-05-31T19:37:31.413Z,16.80
2017-05-31T19:40:00.395Z,13.06
2017-05-31T19:42:29.455Z,10.84
2017-05-31T19:44:58.536Z,17.92
2017-05-31T19:47:27.553Z,15.04
2017-05-31T19:49:57.025Z,24.60
2017-05-31T19:52:26.051Z,13.94
2017-05-31T19:54:55.017Z,15.22
2017-05-31T19:57:24.015Z,13.88
2017-05-31T19:59:53.019Z,14.94
2017-05-31T20:02:22.326Z,17.30
2017-05-31T20:04:51.338Z,14.06
2017-05-31T20:07:20.494Z,12.60
2017-05-31T20:09:49.573Z,12.96
2017-05-31T20:12:18.683Z,17.56
2017-05-31T20:14:48.850Z,10.88
2017-05-31T20:17:17.905Z,14.98
2017-05-31T20:22:23.904Z,21.04
2017-05-31T20:24:52.878Z,16.20
2017-05-31T20:27:21.875Z,10.60
2017-05-31T20:29:50.879Z,15.84
2017-05-31T20:32:20.240Z,15.02
2017-05-31T20:34:49.256Z,18.98
2017-05-31T20:37:18.221Z,17.62
2017-05-31T20:39:47.586Z,17.18
2017-05-31T20:42:16.599Z,19.06
2017-05-31T20:44:45.584Z,17.26
2017-05-31T20:47:14.569Z,21.14
2017-05-31T20:49:43.566Z,11.90
2017-05-31T20:52:12.875Z,11.84
2017-05-31T20:54:41.834Z,16.04
2017-05-31T20:57:10.827Z,12.06
2017-05-31T20:59:39.860Z,11.28
2017-05-31T21:02:08.863Z,20.00
2017-05-31T21:04:38.224Z,16.72
2017-05-31T21:07:07.239Z,13.96
2017-05-31T21:09:36.211Z,15.16
2017-05-31T21:12:05.191Z,13.38
2017-05-31T21:14:34.161Z,14.40
2017-05-31T21:17:03.484Z,10.38
2017-05-31T21:19:32.443Z,14.72
2017-05-31T21:22:01.407Z,16.58
2017-05-31T21:24:30.422Z,21.90
2017-05-31T21:26:59.376Z,11.38
2017-05-31T21:29:28.745Z,21.52
2017-05-31T21:31:57.696Z,9.66
2017-05-31T21:34:26.676Z,19.60
2017-05-31T21:36:55.643Z,14.84
2017-05-31T21:39:24.635Z,17.06
2017-05-31T21:41:54.024Z,20.26
2017-05-31T21:44:23.008Z,18.94
2017-05-31T21:46:52.915Z,28.80
2017-05-31T21:49:21.891Z,20.16
2017-05-31T21:51:50.879Z,17.84
2017-05-31T21:54:20.222Z,17.16
2017-05-31T21:56:49.177Z,21.52
2017-05-31T21:59:18.172Z,14.98
2017-05-31T22:01:47.157Z,25.92
2017-05-31T22:04:16.137Z,12.58
2017-05-31T22:06:45.629Z,15.88
2017-05-31T22:09:14.562Z,12.80
2017-05-31T22:11:43.537Z,17.76
2017-05-31T22:14:12.515Z,15.46
2017-05-31T22:16:41.477Z,17.30
2017-05-31T22:19:10.843Z,29.44
2017-05-31T22:21:39.803Z,15.36
2017-05-31T22:24:08.755Z,17.32
2017-05-31T22:26:37.756Z,14.38
2017-05-31T22:29:06.723Z,21.68
2017-05-31T22:31:36.877Z,14.68
2017-05-31T22:34:05.870Z,19.94
2017-05-31T22:36:34.853Z,12.68
2017-05-31T22:39:04.483Z,18.72
2017-05-31T22:41:33.492Z,13.42
2017-05-31T22:44:02.947Z,12.20
2017-05-31T22:46:31.098Z,18.04
2017-05-31T22:49:00.084Z,18.40
2017-05-31T22:51:29.068Z,13.68
2017-05-31T22:53:58.055Z,16.44
2017-05-31T22:56:27.473Z,12.46
2017-05-31T22:58:56.437Z,12.62
2017-05-31T23:01:25.431Z,9.50
2017-05-31T23:03:54.433Z,12.42
2017-05-31T23:06:23.420Z,14.18
2017-05-31T23:08:52.782Z,16.66
2017-05-31T23:11:21.774Z,17.74
2017-05-31T23:13:50.735Z,18.82
2017-05-31T23:16:19.730Z,17.98
2017-05-31T23:18:48.704Z,18.18
2017-05-31T23:21:18.106Z,19.42
2017-05-31T23:23:47.052Z,17.32
2017-05-31T23:26:16.015Z,22.02
2017-05-31T23:28:44.986Z,12.00
2017-05-31T23:31:13.977Z,13.60
2017-05-31T23:33:42.936Z,13.74
2017-05-31T23:36:11.865Z,18.74
2017-05-31T23:38:41.256Z,11.20
2017-05-31T23:41:10.250Z,24.58
2017-05-31T23:43:39.245Z,15.88
2017-05-31T23:46:08.217Z,8.16
2017-05-31T23:48:38.278Z,15.06
2017-05-31T23:51:07.662Z,32.56
2017-05-31T23:53:36.732Z,14.50
2017-05-31T23:56:05.704Z,22.04
2017-05-31T23:58:34.673Z,14.72
